Time;durP1;ratioP1;P1;durP2;ratioP2;P2;SDS_P1;SDS_P2;PMS_P1;PMS_P2;Temp;Humidity;BMP_temperature;BMP_pressure;BME280_temperature;BME280_humidity;BME280_pressure;Samples;Min_cycle;Max_cycle;Signal;HPM_P1;HPM_P2
2022/09/08 00:00:45;;;;;;;11.73;10.25;;;21.00;99.90;;;;;;5068954;28;20204;-79
2022/09/08 00:03:14;;;;;;;10.35;9.45;;;20.90;99.90;;;;;;5062431;28;20843;-78
2022/09/08 00:05:47;;;;;;;10.93;10.02;;;20.80;99.90;;;;;;5066028;28;20209;-78
2022/09/08 00:08:17;;;;;;;12.52;10.32;;;20.80;99.90;;;;;;5069392;28;20197;-78
2022/09/08 00:11:03;;;;;;;12.15;11.05;;;20.80;99.90;;;;;;5070445;28;20204;-78
2022/09/08 00:13:32;;;;;;;12.20;10.95;;;20.70;99.90;;;;;;5069230;28;20194;-78
2022/09/08 00:16:03;;;;;;;11.85;10.73;;;20.60;99.90;;;;;;5071498;28;20206;-78
2022/09/08 00:18:30;;;;;;;12.82;11.63;;;20.90;99.90;;;;;;5066694;28;20699;-79
2022/09/08 00:20:57;;;;;;;12.27;11.00;;;20.70;99.90;;;;;;5069334;28;20213;-79
2022/09/08 00:23:26;;;;;;;13.20;11.75;;;20.60;99.90;;;;;;5080349;28;20202;-78
2022/09/08 00:25:54;;;;;;;13.32;11.93;;;20.60;99.90;;;;;;5066578;28;20208;-79
2022/09/08 00:28:21;;;;;;;13.45;12.25;;;20.40;99.90;;;;;;5067210;28;20210;-78
2022/09/08 00:30:48;;;;;;;12.65;11.52;;;20.40;99.90;;;;;;5068228;28;20213;-78
2022/09/08 00:33:16;;;;;;;12.75;11.65;;;20.50;99.90;;;;;;5068718;28;20212;-79
2022/09/08 00:35:44;;;;;;;13.43;12.18;;;20.60;99.90;;;;;;5070383;28;20220;-78
2022/09/08 00:38:11;;;;;;;12.05;11.05;;;20.50;99.90;;;;;;5066304;28;20205;-78
2022/09/08 00:40:49;;;;;;;11.82;10.48;;;20.60;99.90;;;;;;5069348;28;20205;-78
2022/09/08 00:43:35;;;;;;;11.98;10.77;;;20.70;99.90;;;;;;5069046;28;20189;-78
2022/09/08 00:46:14;;;;;;;11.40;10.30;;;20.80;99.90;;;;;;5083681;28;20195;-78
2022/09/08 00:48:45;;;;;;;13.68;11.10;;;20.70;99.90;;;;;;5072746;28;20209;-78
2022/09/08 00:51:13;;;;;;;14.30;12.95;;;20.90;99.90;;;;;;5070049;28;20236;-78
2022/09/08 00:53:41;;;;;;;13.23;11.90;;;20.80;99.90;;;;;;5073262;28;20205;-78
2022/09/08 00:56:10;;;;;;;11.23;10.20;;;20.80;99.90;;;;;;5072632;28;20205;-78
2022/09/08 00:58:39;;;;;;;13.57;12.13;;;20.70;99.90;;;;;;5088997;28;20232;-78
2022/09/08 01:01:07;;;;;;;12.88;11.20;;;20.70;99.90;;;;;;5068295;28;20198;-78
2022/09/08 01:03:37;;;;;;;12.23;11.13;;;20.70;99.90;;;;;;5071642;28;20201;-78
2022/09/08 01:06:15;;;;;;;12.15;10.95;;;20.60;99.90;;;;;;5072144;28;20217;-78
2022/09/08 01:14:44;;;;;;;11.85;10.88;;;20.50;99.90;;;;;;5062963;28;20206;-78
2022/09/08 01:17:16;;;;;;;13.25;12.15;;;20.60;99.90;;;;;;5078381;28;20702;-78
2022/09/08 01:19:45;;;;;;;11.75;10.55;;;20.60;99.90;;;;;;5072901;28;20240;-78
2022/09/08 01:22:52;;;;;;;11.68;10.57;;;20.70;99.90;;;;;;5071728;28;20561;-77
2022/09/08 01:25:36;;;;;;;12.57;11.40;;;20.80;99.90;;;;;;5065279;28;20202;-78
2022/09/08 01:28:10;;;;;;;13.73;12.45;;;20.80;99.90;;;;;;5068027;28;20194;-78
2022/09/08 01:30:37;;;;;;;12.57;11.38;;;20.70;99.90;;;;;;5064363;28;20205;-78
2022/09/08 01:33:07;;;;;;;11.50;10.00;;;20.50;99.90;;;;;;5068529;28;20197;-78
2022/09/08 01:35:38;;;;;;;11.68;10.55;;;20.60;99.90;;;;;;5069380;28;20202;-78
2022/09/08 01:38:06;;;;;;;12.15;11.02;;;20.70;99.90;;;;;;5064911;28;20209;-78
2022/09/08 01:40:34;;;;;;;12.25;10.80;;;20.70;99.90;;;;;;5068846;28;20212;-78
2022/09/08 01:43:01;;;;;;;11.10;10.10;;;20.60;99.90;;;;;;5070550;28;20193;-78
2022/09/08 01:45:30;;;;;;;10.77;9.80;;;20.70;99.90;;;;;;5068046;28;20197;-78
2022/09/08 01:47:57;;;;;;;10.98;9.63;;;20.60;99.90;;;;;;5073345;28;20197;-78
2022/09/08 01:50:25;;;;;;;10.90;9.90;;;20.50;99.90;;;;;;5067784;28;20229;-78
2022/09/08 01:52:52;;;;;;;11.38;10.32;;;20.50;99.90;;;;;;5066421;28;20209;-78
2022/09/08 01:55:20;;;;;;;10.30;9.32;;;20.40;99.90;;;;;;5062535;28;20564;-78
2022/09/08 01:57:47;;;;;;;9.50;8.60;;;20.40;99.90;;;;;;5069365;28;21439;-78
2022/09/08 02:00:15;;;;;;;8.43;7.57;;;20.40;99.90;;;;;;5063846;28;20228;-78
2022/09/08 02:02:44;;;;;;;8.45;7.50;;;20.40;99.90;;;;;;5071075;28;20190;-78
2022/09/08 02:05:12;;;;;;;7.90;7.10;;;20.50;99.90;;;;;;5069376;28;20206;-78
2022/09/08 02:07:40;;;;;;;7.95;7.20;;;20.40;99.90;;;;;;5069767;28;20206;-78
2022/09/08 02:10:08;;;;;;;6.88;6.38;;;20.40;99.90;;;;;;5067203;28;20606;-78
2022/09/08 02:12:36;;;;;;;6.95;6.25;;;20.40;99.90;;;;;;5070221;28;20202;-78
2022/09/08 02:15:03;;;;;;;8.10;6.75;;;20.40;99.90;;;;;;5064721;28;20214;-78
2022/09/08 02:17:31;;;;;;;6.43;5.82;;;20.40;99.90;;;;;;5069094;28;20202;-78
2022/09/08 02:20:00;;;;;;;5.90;5.40;;;20.50;99.90;;;;;;5068690;28;20213;-78
2022/09/08 02:22:27;;;;;;;6.05;5.47;;;20.40;99.90;;;;;;5081363;28;20213;-78
2022/09/08 02:24:54;;;;;;;6.35;5.57;;;20.30;99.90;;;;;;5064489;28;20202;-78
2022/09/08 02:27:22;;;;;;;6.20;5.57;;;20.20;99.90;;;;;;5062907;28;20206;-78
2022/09/08 02:29:49;;;;;;;5.93;5.43;;;20.00;99.90;;;;;;5067393;28;20217;-78
2022/09/08 02:32:16;;;;;;;5.53;4.97;;;20.10;99.90;;;;;;5068908;28;20256;-77
2022/09/08 02:34:44;;;;;;;5.28;4.78;;;20.20;99.90;;;;;;5060996;28;20194;-78
2022/09/08 02:37:13;;;;;;;5.80;5.13;;;20.20;99.90;;;;;;5067685;28;20212;-77
2022/09/08 02:39:40;;;;;;;4.95;4.43;;;20.20;99.90;;;;;;5067992;28;20229;-78
2022/09/08 02:42:08;;;;;;;7.03;5.00;;;20.20;99.90;;;;;;5068324;28;20201;-78
2022/09/08 02:44:36;;;;;;;4.95;4.55;;;20.30;99.90;;;;;;5079133;28;20659;-78
2022/09/08 02:47:03;;;;;;;4.90;4.50;;;20.30;99.90;;;;;;5082995;28;20212;-78
2022/09/08 02:49:32;;;;;;;5.30;4.80;;;20.30;99.90;;;;;;5067899;28;20224;-78
2022/09/08 02:51:59;;;;;;;5.20;4.70;;;20.40;99.90;;;;;;5066587;28;20206;-78
2022/09/08 02:54:28;;;;;;;5.40;4.90;;;20.30;99.90;;;;;;5068656;28;20212;-78
2022/09/08 02:56:56;;;;;;;4.40;3.85;;;20.30;99.90;;;;;;5069383;28;20199;-78
2022/09/08 02:59:23;;;;;;;4.32;3.92;;;20.30;99.90;;;;;;5067392;28;20230;-78
2022/09/08 03:01:51;;;;;;;4.93;4.55;;;20.20;99.90;;;;;;5063215;28;20204;-78
2022/09/08 03:04:18;;;;;;;5.00;4.50;;;20.00;99.90;;;;;;5075170;28;20209;-78
2022/09/08 03:06:46;;;;;;;5.38;3.97;;;20.00;99.90;;;;;;5067763;28;20202;-78
2022/09/08 03:09:13;;;;;;;5.82;4.60;;;20.00;99.90;;;;;;5066949;28;20210;-77
2022/09/08 03:11:42;;;;;;;5.70;4.15;;;20.00;99.90;;;;;;5069913;28;20213;-78
2022/09/08 03:14:10;;;;;;;4.78;4.35;;;20.00;99.90;;;;;;5067806;28;20216;-78
2022/09/08 03:16:39;;;;;;;4.97;4.28;;;19.90;99.90;;;;;;5077515;28;20561;-77
2022/09/08 03:19:07;;;;;;;3.88;3.58;;;19.90;99.90;;;;;;5061322;28;20229;-78
2022/09/08 03:21:35;;;;;;;4.22;3.70;;;20.00;99.90;;;;;;5067595;28;20206;-77
2022/09/08 03:24:03;;;;;;;4.45;4.05;;;19.90;99.90;;;;;;5087422;28;20194;-78
2022/09/08 03:26:30;;;;;;;4.03;3.67;;;19.90;99.90;;;;;;5071269;28;20201;-78
2022/09/08 03:28:59;;;;;;;5.07;3.65;;;20.00;99.90;;;;;;5070981;28;20229;-78
2022/09/08 03:31:27;;;;;;;5.40;3.88;;;19.90;99.90;;;;;;5076587;28;20205;-78
2022/09/08 03:33:55;;;;;;;5.80;4.10;;;20.00;99.90;;;;;;5069034;28;20213;-78
2022/09/08 03:36:22;;;;;;;5.00;4.13;;;20.00;99.90;;;;;;5086351;28;20201;-78
2022/09/08 03:38:50;;;;;;;5.50;4.30;;;20.00;99.90;;;;;;5070146;28;20221;-78
2022/09/08 03:41:18;;;;;;;5.10;4.60;;;20.00;99.90;;;;;;5070455;28;20198;-78
2022/09/08 03:43:47;;;;;;;4.32;3.92;;;19.90;99.90;;;;;;5072908;28;20194;-78
2022/09/08 03:46:17;;;;;;;6.38;4.97;;;20.00;99.90;;;;;;5070398;28;20205;-78
2022/09/08 03:48:48;;;;;;;5.68;4.85;;;20.00;99.90;;;;;;5062526;28;20217;-78
2022/09/08 03:51:18;;;;;;;5.22;4.72;;;20.10;99.90;;;;;;5083487;28;20205;-78
2022/09/08 03:53:46;;;;;;;6.20;5.07;;;20.10;99.90;;;;;;5067696;28;20682;-78
2022/09/08 03:56:14;;;;;;;5.20;4.50;;;20.00;99.90;;;;;;5067689;28;20193;-78
2022/09/08 03:58:42;;;;;;;4.47;4.05;;;20.00;99.90;;;;;;5068406;28;20233;-78
2022/09/08 04:01:10;;;;;;;6.20;4.50;;;20.00;99.90;;;;;;5067754;28;20213;-78
2022/09/08 04:03:39;;;;;;;6.78;4.78;;;20.10;99.90;;;;;;5067042;28;20205;-78
2022/09/08 04:06:07;;;;;;;5.57;4.10;;;20.00;99.90;;;;;;5067448;28;20564;-78
2022/09/08 04:08:35;;;;;;;6.03;3.85;;;20.00;99.90;;;;;;5066500;28;20217;-78
2022/09/08 04:11:03;;;;;;;4.07;3.05;;;20.00;99.90;;;;;;5068299;28;20190;-78
2022/09/08 04:13:30;;;;;;;6.40;3.67;;;20.00;99.90;;;;;;5069943;28;20197;-78
2022/09/08 04:15:58;;;;;;;4.63;3.42;;;20.00;99.90;;;;;;5067380;28;20659;-78
2022/09/08 04:18:25;;;;;;;2.70;2.50;;;20.00;99.90;;;;;;5059561;28;20225;-78
2022/09/08 04:20:59;;;;;;;2.78;2.58;;;20.00;99.90;;;;;;5064899;28;20194;-78
2022/09/08 04:23:27;;;;;;;3.35;2.50;;;20.00;99.90;;;;;;5070450;28;20648;-78
2022/09/08 04:25:59;;;;;;;3.60;2.90;;;20.00;99.90;;;;;;5068809;28;20207;-78
2022/09/08 04:28:26;;;;;;;2.83;2.53;;;20.00;99.90;;;;;;5070704;28;20221;-78
2022/09/08 04:30:54;;;;;;;2.85;2.50;;;20.00;99.90;;;;;;5065608;28;20213;-78
2022/09/08 04:33:22;;;;;;;2.13;1.90;;;19.90;99.90;;;;;;5066366;28;20682;-78
2022/09/08 04:35:49;;;;;;;4.50;2.40;;;19.90;99.90;;;;;;5068102;28;20198;-78
2022/09/08 04:38:19;;;;;;;4.07;2.15;;;19.90;99.90;;;;;;5070398;28;20202;-77
2022/09/08 04:40:47;;;;;;;2.30;2.10;;;20.00;99.90;;;;;;5067605;28;20216;-78
2022/09/08 04:43:14;;;;;;;2.75;2.28;;;19.90;99.90;;;;;;5077954;28;20838;-77
2022/09/08 04:45:41;;;;;;;2.92;2.10;;;19.90;99.90;;;;;;5068595;28;20205;-77
2022/09/08 04:48:09;;;;;;;3.35;2.45;;;19.90;99.90;;;;;;5066899;28;20213;-77
2022/09/08 04:50:36;;;;;;;3.65;2.20;;;19.80;99.90;;;;;;5064828;28;20201;-77
2022/09/08 04:53:04;;;;;;;3.28;2.25;;;19.80;99.90;;;;;;5066319;28;20209;-77
2022/09/08 04:55:32;;;;;;;2.90;2.30;;;19.70;99.90;;;;;;5067744;28;20201;-77
2022/09/08 04:58:06;;;;;;;4.68;2.63;;;19.80;99.90;;;;;;5069510;28;20206;-78
2022/09/08 05:00:33;;;;;;;3.78;2.80;;;19.80;99.90;;;;;;5068247;28;20214;-78
2022/09/08 05:03:02;;;;;;;3.00;2.70;;;19.80;99.90;;;;;;5071550;28;20217;-78
2022/09/08 05:05:29;;;;;;;2.88;2.50;;;19.70;99.90;;;;;;5074145;28;20202;-78
2022/09/08 05:07:57;;;;;;;4.80;2.90;;;19.70;99.90;;;;;;5068484;28;20205;-78
2022/09/08 05:10:24;;;;;;;3.05;2.75;;;19.50;99.90;;;;;;5063610;28;20213;-78
2022/09/08 05:12:54;;;;;;;3.28;2.85;;;19.50;99.90;;;;;;5065980;28;20198;-78
2022/09/08 05:15:22;;;;;;;4.85;3.25;;;19.50;99.90;;;;;;5066718;28;20220;-78
2022/09/08 05:17:50;;;;;;;3.95;3.25;;;19.30;99.90;;;;;;5060888;28;20672;-78
2022/09/08 05:20:18;;;;;;;4.63;3.20;;;19.20;99.90;;;;;;5068034;28;20217;-78
2022/09/08 05:22:45;;;;;;;4.65;3.50;;;19.20;99.90;;;;;;5066956;28;20209;-78
2022/09/08 05:25:13;;;;;;;3.92;3.13;;;19.10;99.90;;;;;;5066804;28;20276;-78
2022/09/08 05:27:41;;;;;;;5.57;3.38;;;19.00;99.90;;;;;;5081083;28;20202;-78
2022/09/08 05:30:11;;;;;;;6.47;3.20;;;18.80;99.90;;;;;;5065610;28;20241;-78
2022/09/08 05:32:39;;;;;;;4.43;3.33;;;18.90;99.90;;;;;;5068286;28;20194;-78
2022/09/08 05:35:08;;;;;;;5.88;3.55;;;18.80;99.90;;;;;;5070209;28;20558;-78
2022/09/08 05:37:35;;;;;;;4.72;3.85;;;18.70;99.90;;;;;;5077835;28;20204;-78
2022/09/08 05:40:03;;;;;;;4.15;3.58;;;18.50;99.90;;;;;;5070739;28;20218;-78
2022/09/08 05:42:31;;;;;;;5.97;3.95;;;18.50;99.90;;;;;;5073656;28;20205;-78
2022/09/08 05:44:58;;;;;;;4.72;3.88;;;18.40;99.90;;;;;;5067931;28;20213;-77
2022/09/08 05:47:27;;;;;;;5.38;3.83;;;18.60;99.90;;;;;;5068548;28;20189;-78
2022/09/08 05:49:54;;;;;;;4.25;3.58;;;18.70;99.90;;;;;;5071250;28;20218;-77
2022/09/08 05:52:22;;;;;;;5.75;4.00;;;18.80;99.90;;;;;;5067170;28;20198;-78
2022/09/08 05:54:49;;;;;;;4.10;3.20;;;18.70;99.90;;;;;;5070440;28;20205;-78
2022/09/08 05:57:16;;;;;;;5.00;4.05;;;18.70;99.90;;;;;;5068942;28;20213;-78
2022/09/08 05:59:44;;;;;;;5.90;4.10;;;18.60;99.90;;;;;;5069914;28;20233;-78
2022/09/08 06:02:12;;;;;;;4.05;3.45;;;18.60;99.90;;;;;;5070688;28;20201;-78
2022/09/08 06:04:41;;;;;;;4.72;3.90;;;18.50;99.90;;;;;;5070415;28;20210;-78
2022/09/08 06:07:08;;;;;;;4.35;3.40;;;18.50;99.90;;;;;;5069238;28;20193;-78
2022/09/08 06:09:35;;;;;;;6.72;4.10;;;18.70;99.90;;;;;;5070169;28;20221;-78
2022/09/08 06:12:03;;;;;;;5.63;4.28;;;18.40;99.90;;;;;;5064116;28;20194;-78
2022/09/08 06:14:31;;;;;;;5.68;4.18;;;18.50;99.90;;;;;;5071590;28;20206;-78
2022/09/08 06:16:58;;;;;;;6.63;4.03;;;18.60;99.90;;;;;;5068384;28;20213;-78
2022/09/08 06:19:25;;;;;;;5.53;4.85;;;18.30;99.90;;;;;;5068809;28;20725;-78
2022/09/08 06:21:54;;;;;;;5.00;3.75;;;18.30;99.90;;;;;;5067520;28;20197;-78
2022/09/08 06:24:22;;;;;;;5.93;4.60;;;18.40;99.90;;;;;;5069257;28;20194;-78
2022/09/08 06:27:06;;;;;;;6.03;4.35;;;18.40;99.90;;;;;;5068614;28;20209;-78
2022/09/08 06:29:58;;;;;;;5.05;4.50;;;18.30;99.90;;;;;;5060987;28;20228;-78
2022/09/08 06:32:29;;;;;;;8.65;5.15;;;18.20;99.90;;;;;;5063102;28;20205;-78
2022/09/08 06:35:02;;;;;;;6.22;5.00;;;18.10;99.90;;;;;;5080809;28;20568;-78
2022/09/08 06:37:37;;;;;;;6.65;4.95;;;18.10;99.90;;;;;;5063723;28;20201;-78
2022/09/08 06:40:11;;;;;;;6.43;4.35;;;18.10;99.90;;;;;;5061329;28;20737;-79
2022/09/08 06:42:45;;;;;;;6.85;4.55;;;17.90;99.90;;;;;;5061896;28;20659;-78
2022/09/08 06:45:22;;;;;;;6.10;4.63;;;17.90;99.90;;;;;;5065640;28;20658;-78
2022/09/08 06:48:07;;;;;;;7.10;5.15;;;18.00;99.90;;;;;;5066081;28;20205;-78
2022/09/08 06:50:37;;;;;;;7.53;5.70;;;17.90;99.90;;;;;;5064804;28;20212;-78
2022/09/08 06:53:13;;;;;;;7.40;5.35;;;17.80;99.90;;;;;;5066393;28;20204;-77
2022/09/08 06:55:47;;;;;;;7.63;5.47;;;17.80;99.90;;;;;;5061019;28;20538;-78
2022/09/08 06:58:23;;;;;;;7.80;6.45;;;17.80;99.90;;;;;;5064265;28;20196;-79
2022/09/08 07:00:57;;;;;;;7.93;6.75;;;17.80;99.90;;;;;;5062848;28;20228;-79
2022/09/08 07:03:43;;;;;;;8.23;6.53;;;17.80;99.90;;;;;;5065988;28;20196;-79
2022/09/08 07:06:11;;;;;;;8.90;6.63;;;17.90;99.90;;;;;;5066985;28;20659;-78
2022/09/08 07:09:02;;;;;;;9.23;8.23;;;18.00;99.90;;;;;;5067096;28;20707;-78
2022/09/08 07:11:47;;;;;;;10.80;8.48;;;18.00;99.90;;;;;;5084864;28;20190;-79
2022/09/08 07:14:44;;;;;;;7.60;6.55;;;18.20;99.90;;;;;;5064269;28;20206;-79
2022/09/08 07:17:20;;;;;;;6.85;6.03;;;18.20;99.90;;;;;;5070866;28;20216;-78
2022/09/08 07:19:50;;;;;;;7.57;6.55;;;18.10;99.90;;;;;;5068200;28;20212;-78
2022/09/08 07:22:37;;;;;;;8.27;6.40;;;18.20;99.90;;;;;;5067928;28;20193;-79
2022/09/08 07:25:25;;;;;;;7.25;6.55;;;18.00;99.90;;;;;;5063296;28;20194;-78
2022/09/08 07:27:58;;;;;;;8.73;6.93;;;18.00;99.90;;;;;;5069248;28;20202;-78
2022/09/08 07:30:25;;;;;;;9.38;7.03;;;18.10;99.90;;;;;;5069642;28;20745;-78
2022/09/08 07:32:59;;;;;;;8.75;6.95;;;18.00;99.90;;;;;;5060473;28;20558;-78
2022/09/08 07:35:41;;;;;;;7.70;6.60;;;18.10;99.90;;;;;;5063081;28;20197;-79
2022/09/08 07:38:15;;;;;;;7.88;6.97;;;18.10;99.90;;;;;;5061431;28;20209;-78
2022/09/08 07:40:48;;;;;;;7.43;6.22;;;18.10;99.90;;;;;;5067275;28;20209;-78
2022/09/08 07:43:17;;;;;;;8.50;6.85;;;18.10;99.90;;;;;;5065152;28;20202;-78
2022/09/08 07:45:48;;;;;;;9.63;7.53;;;18.00;99.90;;;;;;5067273;28;20213;-78
2022/09/08 07:48:27;;;;;;;8.90;8.00;;;17.90;99.90;;;;;;5065342;28;20202;-78
2022/09/08 07:51:08;;;;;;;11.23;8.35;;;17.80;99.90;;;;;;5062158;28;20201;-78
2022/09/08 07:54:00;;;;;;;10.13;8.90;;;17.80;99.90;;;;;;5065757;28;20193;-78
2022/09/08 07:56:35;;;;;;;13.98;10.40;;;17.80;99.90;;;;;;5069209;28;20200;-77
2022/09/08 07:59:15;;;;;;;13.05;11.55;;;17.70;99.90;;;;;;5072178;28;20570;-78
2022/09/08 08:01:53;;;;;;;13.40;10.55;;;17.50;99.90;;;;;;5079771;28;20572;-79
2022/09/08 08:04:38;;;;;;;13.90;12.23;;;17.60;99.90;;;;;;5064406;28;20544;-79
2022/09/08 08:07:11;;;;;;;11.98;10.20;;;17.50;99.90;;;;;;5066239;28;20206;-78
2022/09/08 08:09:48;;;;;;;12.70;10.38;;;17.40;99.90;;;;;;5067388;28;20225;-78
2022/09/08 08:12:24;;;;;;;14.85;10.75;;;17.60;99.90;;;;;;5068407;28;20193;-77
2022/09/08 08:15:00;;;;;;;13.93;11.15;;;17.60;99.90;;;;;;5065162;28;20617;-78
2022/09/08 08:17:36;;;;;;;11.57;9.80;;;17.70;99.90;;;;;;5078083;28;20201;-78
2022/09/08 08:20:23;;;;;;;10.70;7.80;;;17.50;99.90;;;;;;5066950;28;20220;-78
2022/09/08 08:23:23;;;;;;;9.77;7.90;;;17.50;99.90;;;;;;5053941;28;20197;-78
2022/09/08 08:25:59;;;;;;;8.05;6.55;;;17.50;99.90;;;;;;5063813;28;20209;-78
2022/09/08 08:28:35;;;;;;;7.85;5.70;;;17.60;99.90;;;;;;5065432;28;20229;-78
2022/09/08 08:31:15;;;;;;;9.02;5.45;;;17.40;99.90;;;;;;5061902;28;20209;-78
2022/09/08 08:33:46;;;;;;;7.55;5.57;;;17.60;99.90;;;;;;5064946;28;20663;-79
2022/09/08 08:36:17;;;;;;;7.13;6.20;;;17.70;99.90;;;;;;5065718;28;20201;-78
2022/09/08 08:38:49;;;;;;;8.00;5.60;;;17.60;99.90;;;;;;5066444;28;20244;-77
2022/09/08 08:41:31;;;;;;;9.00;6.03;;;17.50;99.90;;;;;;5067272;28;20212;-77
2022/09/08 08:44:21;;;;;;;7.22;6.05;;;17.40;99.90;;;;;;5067834;28;20201;-79
2022/09/08 08:47:15;;;;;;;8.15;6.88;;;17.60;99.90;;;;;;5059530;28;20201;-81
2022/09/08 08:50:22;;;;;;;8.27;6.20;;;17.70;99.90;;;;;;5076143;28;20216;-78
2022/09/08 08:53:10;;;;;;;7.90;6.53;;;17.70;99.90;;;;;;5054076;28;20198;-77
2022/09/08 08:55:49;;;;;;;9.75;6.32;;;17.50;99.90;;;;;;5064668;28;20546;-77
2022/09/08 08:58:44;;;;;;;6.78;6.07;;;17.50;99.90;;;;;;5066508;28;20189;-78
2022/09/08 09:01:38;;;;;;;7.57;5.93;;;17.60;99.90;;;;;;5038984;28;20591;-78
2022/09/08 09:04:28;;;;;;;7.13;5.43;;;17.70;99.90;;;;;;5059849;28;20199;-78
2022/09/08 09:07:44;;;;;;;6.90;5.38;;;17.70;99.90;;;;;;5065684;28;20220;-78
2022/09/08 09:10:38;;;;;;;8.52;6.65;;;17.80;99.90;;;;;;5028469;28;20228;-78
2022/09/08 09:13:25;;;;;;;9.70;7.50;;;17.90;99.90;;;;;;5056249;28;20563;-78
2022/09/08 09:16:12;;;;;;;9.50;7.25;;;17.80;99.90;;;;;;5083303;28;20204;-78
2022/09/08 09:19:21;;;;;;;13.18;8.20;;;17.70;99.90;;;;;;5065588;28;20611;-78
2022/09/08 09:22:01;;;;;;;9.90;8.30;;;17.70;99.90;;;;;;5081816;28;20568;-78
2022/09/08 09:24:45;;;;;;;11.07;8.80;;;17.70;99.90;;;;;;5067319;28;20198;-78
2022/09/08 09:27:18;;;;;;;10.50;8.82;;;17.70;99.90;;;;;;5083868;28;20205;-78
2022/09/08 09:29:48;;;;;;;10.80;9.02;;;17.70;99.90;;;;;;5068585;28;20210;-78
2022/09/08 09:32:48;;;;;;;12.18;9.80;;;17.80;99.90;;;;;;5065322;28;20201;-78
2022/09/08 09:35:36;;;;;;;9.98;8.98;;;17.80;99.90;;;;;;5081070;28;20202;-78
2022/09/08 09:38:35;;;;;;;9.38;8.40;;;17.90;99.90;;;;;;5081493;28;20559;-78
2022/09/08 09:41:27;;;;;;;10.85;7.22;;;17.90;99.90;;;;;;5066180;28;20287;-78
2022/09/08 09:44:16;;;;;;;7.90;6.97;;;17.80;99.90;;;;;;5067765;28;20197;-78
2022/09/08 09:47:15;;;;;;;7.95;7.13;;;18.10;99.90;;;;;;5067119;28;20209;-78
2022/09/08 09:50:18;;;;;;;9.73;7.72;;;18.00;99.90;;;;;;5065951;28;20695;-78
2022/09/08 09:52:54;;;;;;;8.88;7.22;;;18.00;99.90;;;;;;5067496;28;20200;-78
2022/09/08 09:55:42;;;;;;;9.40;7.53;;;18.20;99.90;;;;;;5069069;28;20205;-77
2022/09/08 09:58:46;;;;;;;9.88;7.82;;;18.10;99.90;;;;;;5068580;28;20201;-77
2022/09/08 10:01:54;;;;;;;10.00;8.98;;;18.10;99.90;;;;;;5063043;28;20198;-77
2022/09/08 10:05:07;;;;;;;10.18;9.23;;;18.00;99.90;;;;;;5083066;28;20198;-76
2022/09/08 10:08:06;;;;;;;10.80;9.70;;;17.80;99.90;;;;;;5038288;28;20209;-76
2022/09/08 10:11:01;;;;;;;12.55;10.30;;;17.90;99.90;;;;;;5074353;28;20212;-76
2022/09/08 10:13:56;;;;;;;12.65;10.13;;;17.90;99.90;;;;;;5066271;28;20206;-76
2022/09/08 10:17:01;;;;;;;10.20;9.20;;;18.10;99.90;;;;;;5061878;28;20822;-76
2022/09/08 10:20:03;;;;;;;10.02;8.93;;;18.40;99.90;;;;;;5068181;28;20612;-76
2022/09/08 10:22:56;;;;;;;9.02;7.88;;;18.60;99.90;;;;;;5065109;28;20589;-76
2022/09/08 10:25:46;;;;;;;7.85;7.15;;;18.80;99.90;;;;;;5068550;28;20212;-76
2022/09/08 10:28:47;;;;;;;7.57;6.88;;;18.60;99.90;;;;;;5062067;28;20205;-76
2022/09/08 10:31:32;;;;;;;9.00;7.05;;;18.50;99.90;;;;;;5066128;28;20205;-76
2022/09/08 10:34:21;;;;;;;7.43;6.82;;;18.50;99.90;;;;;;5083690;28;20289;-77
2022/09/08 10:37:03;;;;;;;8.15;7.38;;;18.50;99.90;;;;;;5065827;28;20567;-76
2022/09/08 10:39:53;;;;;;;7.25;6.63;;;18.70;99.90;;;;;;5065883;28;20228;-77
2022/09/08 10:42:46;;;;;;;7.20;6.50;;;19.00;99.90;;;;;;5065661;28;20213;-76
2022/09/08 10:46:06;;;;;;;6.78;6.07;;;18.80;99.90;;;;;;5070848;28;20210;-76
2022/09/08 10:48:59;;;;;;;6.85;6.25;;;19.00;99.90;;;;;;4987086;28;20227;-77
2022/09/08 10:52:05;;;;;;;6.78;5.47;;;19.20;99.90;;;;;;4973553;28;20200;-76
2022/09/08 10:55:04;;;;;;;5.55;4.72;;;19.20;99.90;;;;;;5080017;28;20193;-78
2022/09/08 10:57:47;;;;;;;4.47;3.38;;;19.50;99.90;;;;;;5082278;28;20225;-78
2022/09/08 11:00:19;;;;;;;4.03;3.63;;;19.80;99.90;;;;;;5067326;28;20225;-78
2022/09/08 11:03:13;;;;;;;4.93;3.40;;;19.70;99.90;;;;;;5070873;28;20221;-78
2022/09/08 11:05:49;;;;;;;5.80;3.00;;;20.00;99.90;;;;;;5075089;28;20541;-78
2022/09/08 11:08:53;;;;;;;5.07;2.60;;;19.90;99.90;;;;;;5068851;28;20209;-78
2022/09/08 11:11:54;;;;;;;2.67;1.92;;;19.60;99.90;;;;;;5066036;28;20201;-78
2022/09/08 11:14:54;;;;;;;1.98;1.58;;;19.40;99.90;;;;;;5051976;28;20208;-78
2022/09/08 11:17:23;;;;;;;2.38;1.90;;;19.50;99.90;;;;;;5028366;28;20198;-78
2022/09/08 11:20:02;;;;;;;3.67;1.80;;;19.30;99.90;;;;;;5070642;28;20228;-78
2022/09/08 11:22:48;;;;;;;5.85;1.52;;;19.50;99.90;;;;;;5071938;28;20710;-78
2022/09/08 11:25:34;;;;;;;4.65;2.00;;;19.70;99.90;;;;;;5069299;28;20197;-77
2022/09/08 11:28:12;;;;;;;3.28;1.30;;;19.90;99.90;;;;;;5074476;28;20186;-78
2022/09/08 11:30:49;;;;;;;2.50;1.80;;;19.90;99.90;;;;;;5064445;28;20212;-78
2022/09/08 11:33:29;;;;;;;4.32;1.80;;;20.00;99.90;;;;;;5063745;28;20198;-79
2022/09/08 11:36:15;;;;;;;2.80;1.27;;;20.10;99.90;;;;;;5081912;28;20197;-79
2022/09/08 11:39:04;;;;;;;3.65;1.40;;;20.40;99.90;;;;;;5066900;28;20213;-79
2022/09/08 11:42:09;;;;;;;3.38;0.93;;;20.50;99.90;;;;;;5066810;28;20210;-80
2022/09/08 11:44:46;;;;;;;2.40;0.98;;;20.60;99.90;;;;;;5068802;28;20197;-79
2022/09/08 11:47:53;;;;;;;2.83;1.15;;;20.90;99.90;;;;;;5063994;28;20201;-79
2022/09/08 11:50:29;;;;;;;0.80;0.80;;;21.10;99.90;;;;;;5065391;28;20612;-79
2022/09/08 11:53:29;;;;;;;2.28;1.15;;;21.10;99.90;;;;;;5069721;28;20197;-79
2022/09/08 11:56:36;;;;;;;2.38;1.20;;;21.50;99.90;;;;;;5059066;28;20686;-79
2022/09/08 11:59:20;;;;;;;1.58;1.05;;;21.60;99.90;;;;;;5041630;28;20224;-79
2022/09/08 12:02:06;;;;;;;1.35;1.05;;;21.20;99.90;;;;;;5071933;28;20205;-79
2022/09/08 12:04:48;;;;;;;1.00;0.85;;;21.60;99.90;;;;;;5065595;28;20193;-82
2022/09/08 12:07:48;;;;;;;1.95;0.60;;;21.50;99.90;;;;;;5081586;28;20198;-81
2022/09/08 12:10:45;;;;;;;3.13;0.98;;;21.70;99.90;;;;;;5068657;28;20213;-81
2022/09/08 12:13:25;;;;;;;2.42;0.82;;;21.60;99.90;;;;;;5071906;28;20544;-80
2022/09/08 12:16:24;;;;;;;4.15;1.10;;;21.30;99.90;;;;;;5073051;28;20194;-81
2022/09/08 12:19:17;;;;;;;2.80;0.90;;;21.60;99.90;;;;;;5053348;28;20233;-81
2022/09/08 12:22:04;;;;;;;2.00;1.00;;;22.10;99.90;;;;;;5068977;28;20209;-80
2022/09/08 12:25:04;;;;;;;2.45;0.82;;;22.00;99.90;;;;;;5069673;28;20198;-80
2022/09/08 12:27:46;;;;;;;1.98;0.80;;;22.20;99.90;;;;;;5070070;28;20204;-80
2022/09/08 12:30:18;;;;;;;1.80;1.15;;;22.50;98.40;;;;;;5071110;28;20225;-80
2022/09/08 12:33:14;;;;;;;1.45;0.73;;;23.00;98.00;;;;;;5070877;28;20190;-79
2022/09/08 12:35:50;;;;;;;2.63;0.50;;;22.60;98.10;;;;;;5068646;28;20192;-81
2022/09/08 12:38:45;;;;;;;3.83;1.20;;;22.60;98.00;;;;;;5087544;28;20196;-80
2022/09/08 12:41:28;;;;;;;1.45;0.80;;;22.00;98.30;;;;;;5065318;28;20216;-80
2022/09/08 12:44:02;;;;;;;1.70;0.90;;;22.20;98.80;;;;;;5072483;28;20236;-80
2022/09/08 12:46:53;;;;;;;1.65;0.80;;;22.50;96.80;;;;;;5071511;28;20559;-80
2022/09/08 12:49:38;;;;;;;1.13;0.50;;;22.40;96.00;;;;;;5072652;28;20224;-80
2022/09/08 12:52:11;;;;;;;2.35;0.70;;;22.40;96.20;;;;;;5088050;28;20202;-80
2022/09/08 12:54:50;;;;;;;1.73;0.70;;;22.30;96.60;;;;;;5071984;28;20229;-80
2022/09/08 12:57:35;;;;;;;2.03;0.50;;;22.30;96.70;;;;;;5066518;28;20202;-80
2022/09/08 13:00:07;;;;;;;1.13;0.65;;;22.20;96.70;;;;;;5084239;28;20744;-79
2022/09/08 13:03:04;;;;;;;3.22;0.88;;;22.10;97.20;;;;;;5068803;28;20209;-80
2022/09/08 13:05:46;;;;;;;4.05;0.95;;;22.30;97.30;;;;;;5066705;28;20202;-80
2022/09/08 13:08:32;;;;;;;1.50;0.63;;;22.00;97.70;;;;;;5072735;28;20580;-80
2022/09/08 13:11:08;;;;;;;2.63;0.82;;;22.60;97.60;;;;;;5069262;28;20687;-80
2022/09/08 13:13:40;;;;;;;2.75;0.80;;;22.90;96.20;;;;;;5073687;28;20197;-80
2022/09/08 13:16:37;;;;;;;4.90;0.90;;;22.90;95.20;;;;;;5072056;28;20217;-80
2022/09/08 13:19:22;;;;;;;2.55;0.70;;;22.60;94.50;;;;;;5053154;28;20707;-80
2022/09/08 13:22:15;;;;;;;1.52;0.50;;;22.30;95.80;;;;;;5073353;28;20213;-80
2022/09/08 13:24:52;;;;;;;1.95;1.00;;;22.40;96.30;;;;;;5064542;28;20230;-80
2022/09/08 13:27:44;;;;;;;1.27;0.80;;;22.50;95.20;;;;;;5068948;28;20275;-80
2022/09/08 13:30:15;;;;;;;2.63;0.90;;;22.60;95.20;;;;;;5068020;28;20226;-80
2022/09/08 13:33:00;;;;;;;3.22;1.13;;;22.80;95.00;;;;;;5080384;28;20191;-81
2022/09/08 13:35:42;;;;;;;1.35;1.05;;;23.00;94.10;;;;;;5078282;28;20202;-78
2022/09/08 13:38:27;;;;;;;2.25;0.70;;;23.00;94.00;;;;;;5068296;28;20664;-78
2022/09/08 13:41:09;;;;;;;2.20;0.98;;;23.90;92.30;;;;;;5088173;28;20201;-78